Latest Coastal Weather Observations for Geraldton Airport

IDW60701

Issued at 3:22 am WST Saturday 29 August 2015 (issued every 10 minutes, with the page automatically refreshed every 10 minutes)

About coastal observations | Map of coastal stations | Coastal observations for WA | Marine services | Other Formats
Station Details ID: 008315 Name: GERALDTON AIRPORT Lat: -28.80 Lon: 114.70 Height: 29.7 m
Data from the previous 72 hours. | See also: Recent months at Geraldton Airport
Date/Time
WST
Temp

°C
Wind Pressure Rain
since 9am
mm
Weather Cloud Vis
km
Sea
Height
m
Swell
Dir
 
Speed
knots
Gust
knots
hPa Trend Height
m
Period
s
Dir
29/03:00am 10.7 NNE 9 11 1014.5 - 0.0 - - 10 - - - -
29/02:43am 10.6 NNE 9 11 1014.5 - 0.0 - - 10 - - - -
29/02:30am 11.0 NNE 9 11 1014.6 - 0.0 - Partly cloudy 6 - - - -
29/02:24am 11.0 N 9 11 1014.6 - 0.0 - - 7 - - - -
29/02:00am 10.8 NNE 9 11 1014.8 - 0.0 - Partly cloudy 10 - - - -
29/01:30am 11.5 NNE 8 11 1015.1 - 0.0 - Partly cloudy 10 - - - -
29/01:21am 11.6 NNE 7 8 1015.2 - 0.0 - Partly cloudy 10 - - - -
29/01:02am 11.7 NNE 6 7 1015.4 - 0.0 - Partly cloudy 10 - - - -
29/01:00am 11.5 NNE 6 7 1015.4 - 0.0 - Partly cloudy 10 - - - -
29/12:30am 11.9 NNE 8 10 1015.7 - 0.0 - - 10 - - - -
29/12:00am 11.7 NNE 9 10 1015.7 - 0.0 - - 10 - - - -
 
Date/Time
WST
Temp

°C
Wind Pressure Rain
since 9am
mm
Weather Cloud Vis
km
Sea
Height
m
Swell
Dir
 
Speed
knots
Gust
knots
hPa Trend Height
m
Period
s
Dir
28/11:30pm 12.0 NNE 7 8 1016.1 - 0.0 - - 10 - - - -
28/11:00pm 12.1 NNE 7 8 1016.5 - 0.0 - - 10 - - - -
28/10:30pm 12.7 NNE 8 8 1016.9 - 0.0 - - 10 - - - -
28/10:00pm 12.3 N 6 6 1017.1 - 0.0 - - 10 - - - -
28/09:30pm 12.0 NNE 6 7 1016.9 - 0.0 - - 10 - - - -
28/09:00pm 12.3 NNE 5 6 1016.8 - 0.0 - - 10 - - - -
28/08:30pm 12.3 N 4 5 1016.8 - 0.0 - - 10 - - - -
28/08:00pm 12.9 CALM 0 0 1016.6 - 0.0 - - 10 - - - -
28/07:30pm 14.0 CALM 0 0 1016.4 - 0.0 - - 10 - - - -
28/07:00pm 15.8 CALM 0 0 1016.1 - 0.0 - - 10 - - - -
28/06:30pm 17.0 WNW 5 5 1015.7 - 0.0 - - 10 - - - -
28/06:00pm 17.9 WNW 5 5 1015.5 - 0.0 - - 10 - - - -
28/05:30pm 19.5 W 6 8 1015.3 - 0.0 - Mostly clear 10 - - - -
28/05:00pm 20.1 W 7 9 1015.2 - 0.0 - Mostly clear 10 - - - -
28/04:30pm 20.5 W 8 11 1015.1 - 0.0 - Mostly clear 10 - - - -
28/04:00pm 21.0 W 9 11 1015.0 - 0.0 - Mostly clear 10 - - - -
28/03:30pm 21.2 W 10 15 1015.0 - 0.0 - Mostly clear 10 - - - -
28/03:00pm 21.4 W 10 14 1015.1 S 0.0 Fine Mostly clear 30 - - - -
28/02:30pm 21.8 WSW 9 12 1015.1 - 0.0 - Mostly clear 10 - - - -
28/02:00pm 21.5 WSW 10 13 1015.2 - 0.0 - Mostly clear 10 - - - -
28/01:30pm 22.1 W 8 12 1015.5 - 0.0 - Mostly clear 10 - - - -
28/01:00pm 21.7 WSW 10 13 1015.8 - 0.0 - Mostly clear 10 - - - -
28/12:30pm 21.0 W 6 11 1016.2 - 0.0 - Partly cloudy 10 - - - -
28/12:00pm 22.0 N 5 12 1016.6 F 0.0 Fine Partly cloudy 30 - - - -
28/11:30am 21.1 NNE 5 9 1017.1 - 0.0 - Mostly clear 10 - - - -
28/11:00am 20.2 NNE 8 10 1017.3 - 0.0 - Mostly clear 10 - - - -
28/10:30am 19.4 N 9 11 1017.4 - 0.0 - Mostly clear 10 - - - -
28/10:00am 17.7 NNE 9 11 1017.6 - 0.0 - Mostly clear 10 - - - -
28/09:30am 16.0 NNE 10 13 1017.8 - 0.0 - Mostly clear 10 - - - -
28/09:00am 14.8 NNE 11 14 1018.0 R 0.0 Fine Mostly clear 30 - - - -
28/08:30am 13.0 NNE 10 13 1017.7 - 0.0 - Mostly clear 10 - - - -
28/08:00am 11.3 NNE 11 14 1017.4 - 0.0 - Mostly clear 10 - - - -
28/07:30am 10.0 NNE 9 11 1017.1 - 0.0 - Mostly clear 10 - - - -
28/07:00am 9.0 NNE 9 11 1016.9 - 0.0 - Mostly clear 10 - - - -
28/06:30am 9.1 NNE 9 11 1016.7 - 0.0 - Mostly clear 10 - - - -
28/06:00am 9.5 NNE 10 12 1016.5 R 0.0 Fine Clear 30 - - - -
28/05:30am 9.7 NNE 10 12 1016.4 - 0.0 - - 10 - - - -
28/05:00am 9.7 NNE 8 10 1016.2 - 0.0 - - 10 - - - -
28/04:30am 10.0 NNE 8 10 1016.1 - 0.0 - Partly cloudy 10 - - - -
28/04:00am 10.0 NNE 10 12 1016.1 - 0.0 - Partly cloudy 10 - - - -
28/03:30am 10.2 NNE 7 9 1016.1 - 0.0 - Partly cloudy 10 - - - -
28/03:00am 10.6 NNE 6 7 1016.3 - 0.0 - Mostly clear 10 - - - -
28/02:30am 10.5 NNE 6 8 1016.4 - 0.0 - - 10 - - - -
28/02:00am 10.8 NNE 8 10 1016.7 - 0.0 - - 10 - - - -
28/01:30am 11.1 N 7 8 1016.9 - 0.0 - - 10 - - - -
28/01:00am 11.2 N 7 8 1016.9 - 0.0 - - 10 - - - -
28/12:30am 11.5 NNE 7 9 1016.9 - 0.0 - - 10 - - - -
28/12:00am 11.3 NNE 7 8 1016.9 - 0.0 - - 10 - - - -
 
Date/Time
WST
Temp

°C
Wind Pressure Rain
since 9am
mm
Weather Cloud Vis
km
Sea
Height
m
Swell
Dir
 
Speed
knots
Gust
knots
hPa Trend Height
m
Period
s
Dir
27/11:30pm 11.7 NNE 6 8 1017.0 - 0.0 - - 10 - - - -
27/11:00pm 11.5 NNE 5 6 1017.3 - 0.0 - Partly cloudy 10 - - - -
27/10:30pm 11.6 N 5 6 1017.3 - 0.0 - Partly cloudy 10 - - - -
27/10:00pm 12.2 N 5 5 1017.4 - 0.0 - Partly cloudy 10 - - - -
27/09:30pm 13.0 NNW 4 5 1017.5 - 0.0 - Partly cloudy 10 - - - -
27/09:00pm 12.6 N 4 5 1017.3 - 0.0 - - 10 - - - -
27/08:30pm 13.9 NW 5 5 1017.0 - 0.0 - - 10 - - - -
27/08:00pm 14.0 NW 4 5 1016.9 - 0.0 - Partly cloudy 10 - - - -
27/07:30pm 15.3 WNW 5 5 1016.5 - 0.0 - - 10 - - - -
27/07:00pm 15.6 WNW 4 5 1016.3 - 0.0 - - 10 - - - -
27/06:30pm 16.8 W 6 7 1016.3 - 0.0 - - 10 - - - -
27/06:00pm 18.2 W 8 11 1016.0 - 0.0 - - 10 - - - -
27/05:30pm 19.2 W 10 14 1015.8 - 0.0 - Mostly clear 10 - - - -
27/05:00pm 19.7 W 12 16 1015.5 - 0.0 - Mostly clear 10 - - - -
27/04:30pm 20.1 W 14 16 1015.2 - 0.0 - Mostly clear 10 - - - -
27/04:00pm 20.9 WNW 13 19 1015.1 - 0.0 - Partly cloudy 10 - - - -
27/03:30pm 21.2 WNW 15 19 1015.0 - 0.0 - Partly cloudy 10 - - - -
27/03:00pm 21.2 WNW 15 20 1014.9 R 0.0 Fine Mostly clear 30 - - - -
27/02:30pm 20.9 NW 15 20 1014.8 - 0.0 - Partly cloudy 10 - - - -
27/02:00pm 21.3 WNW 16 21 1014.8 - 0.0 - Partly cloudy 10 - - - -
27/01:30pm 21.7 WNW 15 20 1015.0 - 0.0 - Partly cloudy 10 - - - -
27/01:00pm 21.7 NNW 14 21 1015.2 - 0.0 - Partly cloudy 10 - - - -
27/12:30pm 21.4 NW 14 20 1015.3 - 0.0 - Partly cloudy 10 - - - -
27/12:00pm 21.8 NNW 14 18 1015.5 R 0.0 Fine Mostly clear 30 - - - -
27/11:30am 21.9 NW 15 21 1015.7 - 0.0 - Mostly clear 10 - - - -
27/11:00am 21.9 NW 16 21 1015.8 - 0.0 - Mostly clear 10 - - - -
27/10:30am 21.2 NW 16 20 1015.8 - 0.0 - Mostly clear 10 - - - -
27/10:00am 20.7 NNW 13 18 1015.8 - 0.0 - Mostly clear 10 - - - -
27/09:30am 20.4 NNW 12 17 1015.9 - 0.0 - Mostly clear 10 - - - -
27/09:00am 17.4 N 9 11 1015.8 R 0.0 Fine Mostly clear 30 - - - -
27/08:30am 15.1 NNE 11 13 1015.5 - 0.0 - - 10 - - - -
27/08:00am 13.6 NNE 13 16 1015.2 - 0.0 - - 10 - - - -
27/07:30am 12.3 NNE 11 14 1015.0 - 0.0 - - 10 - - - -
27/07:00am 11.5 NNE 11 13 1014.8 - 0.0 - - 10 - - - -
27/06:30am 11.6 NNE 12 15 1014.6 - 0.0 - - 10 - - - -
27/06:00am 12.1 NNE 13 16 1014.4 F 0.0 Fine Mostly clear 30 - - - -
27/05:30am 12.0 NNE 10 11 1014.2 - 0.0 - - 10 - - - -
27/05:00am 11.5 NNE 9 11 1014.0 - 0.0 - - 10 - - - -
27/04:30am 11.4 NNE 8 9 1014.1 - 0.0 - - 10 - - - -
27/04:00am 11.9 NNE 6 7 1014.2 - 0.0 - - 10 - - - -
27/03:30am 12.1 ENE 7 10 1014.3 - 0.0 - - 10 - - - -
27/03:00am 12.4 N 2 4 1014.4 - 0.0 - - 10 - - - -
27/02:30am 11.9 S 4 6 1014.5 - 0.0 - - 10 - - - -
27/02:00am 11.7 ENE 5 6 1014.7 - 0.0 - - 10 - - - -
27/01:30am 11.8 NE 5 6 1015.0 - 0.0 - - 10 - - - -
27/01:00am 11.5 NE 6 7 1015.2 - 0.0 - - 10 - - - -
27/12:30am 12.0 ENE 4 5 1015.3 - 0.0 - - 10 - - - -
27/12:00am 12.3 NE 3 7 1015.5 - 0.0 - - 10 - - - -
 
Date/Time
WST
Temp

°C
Wind Pressure Rain
since 9am
mm
Weather Cloud Vis
km
Sea
Height
m
Swell
Dir
 
Speed
knots
Gust
knots
hPa Trend Height
m
Period
s
Dir
26/11:30pm 12.9 ESE 6 7 1015.7 - 0.0 - Partly cloudy 10 - - - -
26/11:00pm 13.2 NE 7 9 1016.1 - 0.0 - Partly cloudy 10 - - - -
26/10:30pm 12.9 E 3 5 1016.4 - 0.0 - - 10 - - - -
26/10:00pm 13.0 CALM 0 3 1016.5 - 0.0 - - 10 - - - -
26/09:30pm 13.6 E 4 5 1016.3 - 0.0 - Partly cloudy 10 - - - -
26/09:00pm 14.2 S 3 4 1016.3 - 0.0 - - 10 - - - -
26/08:30pm 13.5 SE 3 5 1016.4 - 0.0 - - 10 - - - -
26/08:00pm 13.3 SE 3 4 1016.3 - 0.0 - - 10 - - - -
26/07:30pm 14.6 SSE 6 6 1016.2 - 0.0 - - 10 - - - -
26/07:00pm 15.5 SSE 5 5 1016.1 - 0.0 - - 10 - - - -
26/06:30pm 16.5 SSE 4 6 1016.1 - 0.0 - - 10 - - - -
26/06:00pm 17.8 S 5 6 1016.0 - 0.0 - - 10 - - - -
26/05:30pm 18.9 S 7 8 1015.9 - 0.0 - - 10 - - - -
26/05:00pm 20.2 SSW 9 11 1015.7 - 0.0 - - 10 - - - -
26/04:30pm 21.8 WSW 9 10 1015.6 - 0.0 - - 10 - - - -
26/04:00pm 23.1 NE 5 6 1015.7 - 0.0 - - 10 - - - -
26/03:30pm 24.0 NE 7 10 1015.8 - 0.0 - - 10 - - - -
26/03:00pm 24.2 ENE 7 11 1016.0 F 0.0 Fine Mostly cloudy 30 - - - -
26/02:30pm 22.7 ENE 6 8 1015.9 - 0.0 - - 10 - - - -
26/02:00pm 23.8 NE 9 12 1016.1 - 0.0 - Mostly clear 10 - - - -
26/01:30pm 24.0 NE 10 13 1016.5 - 0.0 - Mostly clear 10 - - - -
26/01:00pm 24.0 NNE 11 17 1017.1 - 0.0 - Mostly clear 10 - - - -
26/12:30pm 22.9 NNE 14 18 1017.7 - 0.0 - - 10 - - - -
26/12:00pm 22.2 NE 14 18 1018.3 F 0.0 Fine Mostly clear 30 - - - -
26/11:30am 21.7 NE 15 19 1018.5 - 0.0 - - 10 - - - -
26/11:00am 20.4 NNE 19 23 1018.8 - 0.0 - - 10 - - - -
26/10:30am 19.2 NNE 19 25 1019.0 - 0.0 - - 10 - - - -
26/10:00am 18.1 NE 19 24 1019.2 - 0.0 - - 10 - - - -
26/09:30am 17.3 NE 15 21 1019.4 - 0.0 - - 10 - - - -
26/09:00am 15.2 NE 14 17 1019.8 R 0.0 Fine Partly cloudy 30 - - - -
26/08:30am 13.2 NNE 14 17 1019.6 - 0.0 - - 10 - - - -
26/08:00am 12.0 NE 11 15 1019.3 - 0.0 - - 10 - - - -
26/07:30am 10.6 NE 11 15 1019.2 - 0.0 - - 10 - - - -
26/07:00am 9.8 NNE 12 15 1018.9 - 0.0 - - 10 - - - -
26/06:30am 9.3 NNE 9 12 1018.5 - 0.0 - - 10 - - - -
26/06:00am 9.1 NE 11 13 1018.4 F 0.0 Fine Mostly clear 30 - - - -
26/05:30am 9.2 NE 11 13 1018.3 - 0.0 - - 10 - - - -
26/05:00am 9.7 NNE 13 15 1018.0 - 0.0 - - 10 - - - -
26/04:30am 10.4 NE 12 15 1017.9 - 0.0 - - 10 - - - -
26/04:00am 9.4 NE 11 13 1017.9 - 0.0 - - 10 - - - -
26/03:30am 9.7 NNE 11 13 1018.2 - 0.0 - - 10 - - - -

Other Formats:

Comma delimited format used in spreadsheet applications
http://www.bom.gov.au/fwo/IDW60701/IDW60701.94403.axf

JavaScript Object Notation format (JSON) in row-major order
http://www.bom.gov.au/fwo/IDW60701/IDW60701.94403.json